createdAt,value
2023-01-28T00:01:56.927Z,62.90
2023-01-28T00:04:24.151Z,62.90
2023-01-28T00:06:51.181Z,62.59
2023-01-28T00:09:18.597Z,62.84
2023-01-28T00:11:45.600Z,62.76
2023-01-28T00:14:12.899Z,62.50
2023-01-28T00:16:39.987Z,62.61
2023-01-28T00:19:07.535Z,62.58
2023-01-28T00:21:35.029Z,62.89
2023-01-28T00:24:02.118Z,63.04
2023-01-28T00:26:29.406Z,62.99
2023-01-28T00:28:56.384Z,63.20
2023-01-28T00:31:27.549Z,62.94
2023-01-28T00:33:56.792Z,63.23
2023-01-28T00:36:26.204Z,63.13
2023-01-28T00:38:59.523Z,63.08
2023-01-28T00:41:29.407Z,62.91
2023-01-28T00:43:59.239Z,62.96
2023-01-28T00:46:29.247Z,62.99
2023-01-28T00:48:56.385Z,62.66
2023-01-28T00:51:23.538Z,62.98
2023-01-28T00:53:50.783Z,62.93
2023-01-28T00:56:19.377Z,62.86
2023-01-28T00:58:47.199Z,62.88
2023-01-28T01:01:19.328Z,62.64
2023-01-28T01:03:47.413Z,62.72
2023-01-28T01:06:16.216Z,62.82
2023-01-28T01:08:50.160Z,62.44
2023-01-28T01:11:19.054Z,62.67
2023-01-28T01:13:55.521Z,62.66
2023-01-28T01:16:28.751Z,62.49
2023-01-28T01:18:56.831Z,62.66
2023-01-28T01:21:28.128Z,62.43
2023-01-28T01:23:56.230Z,62.63
2023-01-28T01:26:23.630Z,62.56
2023-01-28T01:28:52.350Z,62.66
2023-01-28T01:31:21.912Z,62.45
2023-01-28T01:33:51.728Z,62.45
2023-01-28T01:36:21.776Z,62.53
2023-01-28T01:38:53.568Z,62.53
2023-01-28T01:41:32.882Z,62.32
2023-01-28T01:44:02.671Z,62.51
2023-01-28T01:46:38.819Z,62.50
2023-01-28T01:49:24.009Z,62.40
2023-01-28T01:52:29.224Z,62.50
2023-01-28T01:54:59.649Z,62.37
2023-01-28T01:57:33.944Z,62.58
2023-01-28T02:00:07.542Z,62.50
2023-01-28T02:02:49.924Z,62.42
2023-01-28T02:05:21.430Z,62.90
2023-01-28T02:08:17.080Z,62.62
2023-01-28T02:10:47.223Z,62.51
2023-01-28T02:13:16.636Z,62.73
2023-01-28T02:15:44.878Z,62.95
2023-01-28T02:18:12.248Z,62.90
2023-01-28T02:21:26.806Z,62.54
2023-01-28T02:24:23.550Z,62.72
2023-01-28T02:27:14.460Z,62.82
2023-01-28T02:30:04.311Z,62.70
2023-01-28T02:32:39.727Z,62.67
2023-01-28T02:35:14.602Z,62.74
2023-01-28T02:37:54.030Z,62.81
2023-01-28T02:40:30.332Z,62.69
2023-01-28T02:42:58.104Z,62.69
2023-01-28T02:45:51.758Z,62.77
2023-01-28T02:48:22.326Z,62.76
2023-01-28T02:51:04.623Z,62.83
2023-01-28T02:53:51.213Z,62.76
2023-01-28T02:56:29.293Z,62.74
2023-01-28T02:59:32.279Z,62.82
2023-01-28T03:02:25.577Z,62.98
2023-01-28T03:05:02.042Z,62.96
2023-01-28T03:07:31.499Z,63.15
2023-01-28T03:10:06.004Z,63.17
2023-01-28T03:12:53.983Z,63.09
2023-01-28T03:15:45.103Z,63.18
2023-01-28T03:19:05.815Z,63.56
2023-01-28T03:22:01.503Z,63.62
2023-01-28T03:24:59.135Z,63.73
2023-01-28T03:28:12.106Z,64.15
2023-01-28T03:31:05.789Z,63.97
2023-01-28T03:34:03.773Z,64.28
2023-01-28T03:36:50.560Z,64.41
2023-01-28T03:39:37.604Z,64.31
2023-01-28T03:42:13.665Z,64.58
2023-01-28T03:44:53.533Z,64.45
2023-01-28T03:47:27.065Z,64.78
2023-01-28T03:49:56.609Z,64.53
2023-01-28T03:52:32.043Z,64.51
2023-01-28T03:55:17.994Z,64.55
2023-01-28T03:57:45.292Z,64.52
2023-01-28T04:00:14.379Z,64.68
2023-01-28T04:02:41.462Z,64.85
2023-01-28T04:05:16.450Z,64.93
2023-01-28T04:07:47.717Z,64.91
2023-01-28T04:10:41.198Z,64.68
2023-01-28T04:13:22.322Z,64.97
2023-01-28T04:15:50.067Z,65.00
2023-01-28T04:18:17.283Z,64.73
2023-01-28T04:20:45.590Z,65.17
2023-01-28T04:23:12.869Z,64.71
2023-01-28T04:25:39.859Z,65.01
2023-01-28T04:28:09.656Z,64.98
2023-01-28T04:30:36.976Z,64.93
2023-01-28T04:33:24.390Z,64.90
2023-01-28T04:36:06.448Z,65.08
2023-01-28T04:39:05.855Z,65.07
2023-01-28T04:41:38.788Z,65.13
2023-01-28T04:44:14.442Z,65.44
2023-01-28T04:46:55.965Z,65.02
2023-01-28T04:49:43.371Z,65.46
2023-01-28T04:52:27.371Z,65.10
2023-01-28T04:55:18.065Z,65.23
2023-01-28T04:57:48.668Z,65.14
2023-01-28T05:00:16.517Z,64.99
2023-01-28T05:02:43.693Z,65.24
2023-01-28T05:05:11.016Z,65.04
2023-01-28T05:07:54.983Z,65.34
2023-01-28T05:10:23.087Z,65.25
2023-01-28T05:12:50.266Z,65.11
2023-01-28T05:15:20.320Z,65.25
2023-01-28T05:17:48.643Z,65.36
2023-01-28T05:20:18.925Z,65.40
2023-01-28T05:22:48.606Z,65.12
2023-01-28T05:25:19.826Z,65.25
2023-01-28T05:27:52.410Z,65.13
2023-01-28T05:30:20.871Z,65.14
2023-01-28T05:32:48.356Z,65.32
2023-01-28T05:35:19.013Z,65.13
2023-01-28T05:37:46.400Z,65.22
2023-01-28T05:40:14.169Z,65.10
2023-01-28T05:42:41.446Z,65.02
2023-01-28T05:45:21.803Z,65.28
2023-01-28T05:48:12.287Z,65.37
2023-01-28T05:50:59.854Z,65.17
2023-01-28T05:53:35.340Z,65.29
2023-01-28T05:56:02.558Z,65.37
2023-01-28T05:58:32.219Z,65.65
2023-01-28T06:01:03.104Z,65.39
2023-01-28T06:03:38.797Z,65.42
2023-01-28T06:06:06.510Z,65.40
2023-01-28T06:08:33.519Z,65.49
2023-01-28T06:11:01.024Z,65.49
2023-01-28T06:13:32.799Z,65.81
2023-01-28T06:16:18.791Z,65.68
2023-01-28T06:18:58.495Z,65.84
2023-01-28T06:21:25.585Z,66.08
2023-01-28T06:23:52.566Z,66.14
2023-01-28T06:26:19.694Z,66.15
2023-01-28T06:28:47.359Z,66.05
2023-01-28T06:31:14.827Z,66.55
2023-01-28T06:33:41.945Z,66.66
2023-01-28T06:36:09.058Z,66.45
2023-01-28T06:38:36.300Z,66.39
2023-01-28T06:41:03.327Z,66.57
2023-01-28T06:43:30.767Z,66.64
2023-01-28T06:45:58.612Z,66.76
2023-01-28T06:48:27.128Z,66.56
2023-01-28T06:50:54.663Z,66.63
2023-01-28T06:53:22.685Z,66.40
2023-01-28T06:55:49.924Z,66.57
2023-01-28T06:58:17.452Z,66.32
2023-01-28T07:00:47.925Z,66.43
2023-01-28T07:03:15.552Z,66.34
2023-01-28T07:05:42.707Z,66.20
2023-01-28T07:08:09.857Z,66.44
2023-01-28T07:10:37.003Z,66.26
2023-01-28T07:13:04.117Z,66.50
2023-01-28T07:15:31.284Z,66.17
2023-01-28T07:17:59.587Z,65.99
2023-01-28T07:20:27.059Z,66.31
2023-01-28T07:22:54.344Z,66.53
2023-01-28T07:25:21.467Z,66.50
2023-01-28T07:27:51.546Z,66.10
2023-01-28T07:30:20.724Z,66.27
2023-01-28T07:32:53.061Z,66.15
2023-01-28T07:35:20.365Z,66.01
2023-01-28T07:37:56.364Z,65.83
2023-01-28T07:40:24.441Z,66.17
2023-01-28T07:42:52.594Z,66.15
2023-01-28T07:45:25.666Z,66.10
2023-01-28T07:48:01.776Z,65.70
2023-01-28T07:50:30.957Z,66.08
2023-01-28T07:52:58.522Z,66.18
2023-01-28T07:55:26.135Z,66.11
2023-01-28T07:57:57.007Z,66.05
2023-01-28T08:00:26.158Z,65.96
2023-01-28T08:03:16.210Z,65.65
2023-01-28T08:05:48.334Z,65.82
2023-01-28T08:08:16.278Z,65.81
2023-01-28T08:10:46.582Z,65.69
2023-01-28T08:13:15.391Z,65.72
2023-01-28T08:15:42.691Z,65.51
2023-01-28T08:18:14.047Z,65.34
2023-01-28T08:20:44.670Z,65.45
2023-01-28T08:23:19.798Z,65.76
2023-01-28T08:25:47.640Z,65.56
2023-01-28T08:28:16.640Z,65.68
2023-01-28T08:30:44.125Z,65.98
2023-01-28T08:33:14.075Z,65.50
2023-01-28T08:35:41.784Z,65.49
2023-01-28T08:38:11.469Z,65.54
2023-01-28T08:40:38.584Z,65.64
2023-01-28T08:43:06.124Z,65.60
2023-01-28T08:45:33.406Z,65.62
2023-01-28T08:48:06.717Z,65.60
